sensor_id;sensor_type;location;lat;lon;timestamp;pressure;altitude;pressure_sealevel;temperature;humidity
28267;BME280;15525;45.568;5.448;2023-05-20T00:00:06;97891.06;;;17.62;61.80
28267;BME280;15525;45.568;5.448;2023-05-20T00:02:32;97899.69;;;17.64;61.65
28267;BME280;15525;45.568;5.448;2023-05-20T00:04:57;97873.66;;;17.38;62.08
28267;BME280;15525;45.568;5.448;2023-05-20T00:07:23;97901.22;;;17.31;62.10
28267;BME280;15525;45.568;5.448;2023-05-20T00:09:48;97886.53;;;17.15;62.30
28267;BME280;15525;45.568;5.448;2023-05-20T00:12:14;97895.91;;;17.09;62.48
28267;BME280;15525;45.568;5.448;2023-05-20T00:14:39;97890.03;;;17.24;62.34
28267;BME280;15525;45.568;5.448;2023-05-20T00:17:05;97868.22;;;17.12;62.26
28267;BME280;15525;45.568;5.448;2023-05-20T00:19:30;97855.50;;;17.13;62.04
28267;BME280;15525;45.568;5.448;2023-05-20T00:21:56;97865.53;;;17.38;61.68
28267;BME280;15525;45.568;5.448;2023-05-20T00:24:23;97834.50;;;17.27;61.36
28267;BME280;15525;45.568;5.448;2023-05-20T00:26:48;97823.22;;;17.25;61.61
28267;BME280;15525;45.568;5.448;2023-05-20T00:29:14;97820.13;;;17.01;61.86
28267;BME280;15525;45.568;5.448;2023-05-20T00:31:39;97858.50;;;17.03;61.91
28267;BME280;15525;45.568;5.448;2023-05-20T00:34:06;97854.63;;;16.87;62.19
28267;BME280;15525;45.568;5.448;2023-05-20T00:36:31;97811.44;;;16.56;62.13
28267;BME280;15525;45.568;5.448;2023-05-20T00:38:57;97831.84;;;16.71;62.16
28267;BME280;15525;45.568;5.448;2023-05-20T00:41:23;97850.31;;;16.77;62.37
28267;BME280;15525;45.568;5.448;2023-05-20T00:43:52;97865.56;;;16.73;62.93
28267;BME280;15525;45.568;5.448;2023-05-20T00:46:18;97880.06;;;16.77;62.47
28267;BME280;15525;45.568;5.448;2023-05-20T00:48:44;97876.00;;;16.97;62.23
28267;BME280;15525;45.568;5.448;2023-05-20T00:51:11;97897.13;;;17.03;62.35
28267;BME280;15525;45.568;5.448;2023-05-20T00:53:37;97817.16;;;16.55;61.87
28267;BME280;15525;45.568;5.448;2023-05-20T00:56:03;97864.16;;;16.84;62.15
28267;BME280;15525;45.568;5.448;2023-05-20T00:58:29;97846.34;;;16.75;61.80
28267;BME280;15525;45.568;5.448;2023-05-20T01:00:55;97821.94;;;16.58;61.73
28267;BME280;15525;45.568;5.448;2023-05-20T01:03:21;97834.19;;;16.55;62.20
28267;BME280;15525;45.568;5.448;2023-05-20T01:05:46;97876.81;;;16.67;62.43
28267;BME280;15525;45.568;5.448;2023-05-20T01:08:12;97856.84;;;16.76;62.56
28267;BME280;15525;45.568;5.448;2023-05-20T01:10:41;97842.97;;;16.69;62.14
28267;BME280;15525;45.568;5.448;2023-05-20T01:13:08;97842.53;;;16.84;61.66
28267;BME280;15525;45.568;5.448;2023-05-20T01:15:36;97826.59;;;16.66;61.45
28267;BME280;15525;45.568;5.448;2023-05-20T01:18:06;97827.72;;;16.73;62.02
28267;BME280;15525;45.568;5.448;2023-05-20T01:20:34;97800.19;;;16.63;61.04
28267;BME280;15525;45.568;5.448;2023-05-20T01:23:00;97817.00;;;16.51;61.09
28267;BME280;15525;45.568;5.448;2023-05-20T01:25:25;97802.91;;;16.32;61.89
28267;BME280;15525;45.568;5.448;2023-05-20T01:27:53;97805.91;;;16.31;61.65
28267;BME280;15525;45.568;5.448;2023-05-20T01:30:19;97814.56;;;16.41;61.67
28267;BME280;15525;45.568;5.448;2023-05-20T01:33:07;97897.06;;;16.78;62.64
28267;BME280;15525;45.568;5.448;2023-05-20T01:35:33;97837.63;;;16.47;61.88
28267;BME280;15525;45.568;5.448;2023-05-20T01:38:00;97797.78;;;16.22;61.99
28267;BME280;15525;45.568;5.448;2023-05-20T01:40:28;97829.66;;;16.42;61.91
28267;BME280;15525;45.568;5.448;2023-05-20T01:42:54;97788.44;;;16.37;61.46
28267;BME280;15525;45.568;5.448;2023-05-20T01:45:23;97790.13;;;16.55;61.54
28267;BME280;15525;45.568;5.448;2023-05-20T01:47:49;97780.44;;;16.62;60.71
28267;BME280;15525;45.568;5.448;2023-05-20T01:50:15;97799.66;;;16.52;61.18
28267;BME280;15525;45.568;5.448;2023-05-20T01:52:40;97836.59;;;16.65;61.28
28267;BME280;15525;45.568;5.448;2023-05-20T01:55:06;97868.94;;;16.87;61.40
28267;BME280;15525;45.568;5.448;2023-05-20T01:57:31;97805.78;;;16.36;61.86
28267;BME280;15525;45.568;5.448;2023-05-20T01:59:57;97782.56;;;16.26;61.29
28267;BME280;15525;45.568;5.448;2023-05-20T02:02:22;97835.47;;;16.66;61.41
28267;BME280;15525;45.568;5.448;2023-05-20T02:04:49;97780.69;;;16.35;61.25
28267;BME280;15525;45.568;5.448;2023-05-20T02:07:16;97803.69;;;16.63;61.31
28267;BME280;15525;45.568;5.448;2023-05-20T02:09:43;97848.00;;;17.01;60.89
28267;BME280;15525;45.568;5.448;2023-05-20T02:12:09;97779.53;;;16.67;60.93
28267;BME280;15525;45.568;5.448;2023-05-20T02:14:40;97769.78;;;16.57;60.79
28267;BME280;15525;45.568;5.448;2023-05-20T02:17:06;97810.56;;;16.78;60.54
28267;BME280;15525;45.568;5.448;2023-05-20T02:19:31;97786.97;;;16.53;61.21
28267;BME280;15525;45.568;5.448;2023-05-20T02:21:57;97771.19;;;16.46;61.11
28267;BME280;15525;45.568;5.448;2023-05-20T02:24:22;97790.50;;;16.62;61.08
28267;BME280;15525;45.568;5.448;2023-05-20T02:26:48;97767.84;;;16.41;60.84
28267;BME280;15525;45.568;5.448;2023-05-20T02:29:15;97820.09;;;16.75;61.08
28267;BME280;15525;45.568;5.448;2023-05-20T02:31:41;97816.56;;;16.66;61.29
28267;BME280;15525;45.568;5.448;2023-05-20T02:34:06;97852.72;;;16.87;61.36
28267;BME280;15525;45.568;5.448;2023-05-20T02:36:32;97765.06;;;16.24;61.21
28267;BME280;15525;45.568;5.448;2023-05-20T02:38:57;97762.47;;;16.19;61.38
28267;BME280;15525;45.568;5.448;2023-05-20T02:41:25;97806.03;;;16.56;61.27
28267;BME280;15525;45.568;5.448;2023-05-20T02:43:50;97755.22;;;16.28;60.95
28267;BME280;15525;45.568;5.448;2023-05-20T02:46:16;97827.28;;;16.80;60.86
28267;BME280;15525;45.568;5.448;2023-05-20T02:48:44;97798.78;;;16.74;60.77
28267;BME280;15525;45.568;5.448;2023-05-20T02:51:09;97759.19;;;16.69;60.33
28267;BME280;15525;45.568;5.448;2023-05-20T02:53:35;97773.66;;;16.82;60.05
28267;BME280;15525;45.568;5.448;2023-05-20T02:56:02;97762.34;;;16.54;60.52
28267;BME280;15525;45.568;5.448;2023-05-20T02:58:28;97822.22;;;16.95;60.33
28267;BME280;15525;45.568;5.448;2023-05-20T03:00:54;97788.47;;;16.84;60.24
28267;BME280;15525;45.568;5.448;2023-05-20T03:03:22;97780.84;;;16.86;59.92
28267;BME280;15525;45.568;5.448;2023-05-20T03:05:47;97782.63;;;16.99;59.94
28267;BME280;15525;45.568;5.448;2023-05-20T03:08:14;97809.81;;;17.11;59.87
28267;BME280;15525;45.568;5.448;2023-05-20T03:10:39;97819.88;;;17.11;60.05
28267;BME280;15525;45.568;5.448;2023-05-20T03:13:06;97745.31;;;16.62;60.16
28267;BME280;15525;45.568;5.448;2023-05-20T03:15:40;97802.78;;;16.85;60.73
28267;BME280;15525;45.568;5.448;2023-05-20T03:18:06;97810.91;;;16.85;60.60
28267;BME280;15525;45.568;5.448;2023-05-20T03:20:33;97832.84;;;16.92;60.60
28267;BME280;15525;45.568;5.448;2023-05-20T03:23:05;97795.75;;;16.75;60.62
28267;BME280;15525;45.568;5.448;2023-05-20T03:25:31;97765.81;;;16.55;60.65
28267;BME280;15525;45.568;5.448;2023-05-20T03:27:57;97745.59;;;16.44;60.40
28267;BME280;15525;45.568;5.448;2023-05-20T03:30:23;97718.78;;;16.17;60.60
28267;BME280;15525;45.568;5.448;2023-05-20T03:32:49;97804.66;;;16.67;60.89
28267;BME280;15525;45.568;5.448;2023-05-20T03:35:15;97798.47;;;16.75;60.79
28267;BME280;15525;45.568;5.448;2023-05-20T03:37:41;97791.41;;;16.57;60.64
28267;BME280;15525;45.568;5.448;2023-05-20T03:40:08;97805.22;;;16.47;60.77
28267;BME280;15525;45.568;5.448;2023-05-20T03:42:36;97798.53;;;16.45;60.66
28267;BME280;15525;45.568;5.448;2023-05-20T03:45:02;97788.56;;;16.54;60.78
28267;BME280;15525;45.568;5.448;2023-05-20T03:47:28;97790.50;;;16.62;60.29
28267;BME280;15525;45.568;5.448;2023-05-20T03:49:53;97789.56;;;16.75;59.57
28267;BME280;15525;45.568;5.448;2023-05-20T03:52:19;97814.22;;;16.82;59.82
28267;BME280;15525;45.568;5.448;2023-05-20T03:54:45;97781.75;;;16.34;60.81
28267;BME280;15525;45.568;5.448;2023-05-20T03:57:10;97806.94;;;16.43;60.66
28267;BME280;15525;45.568;5.448;2023-05-20T03:59:36;97771.94;;;16.38;60.43
28267;BME280;15525;45.568;5.448;2023-05-20T04:02:02;97778.09;;;16.30;60.68
28267;BME280;15525;45.568;5.448;2023-05-20T04:04:28;97786.53;;;16.29;60.55
28267;BME280;15525;45.568;5.448;2023-05-20T04:06:53;97820.44;;;16.43;60.98
28267;BME280;15525;45.568;5.448;2023-05-20T04:09:20;97803.38;;;16.34;60.70
28267;BME280;15525;45.568;5.448;2023-05-20T04:11:46;97820.66;;;16.47;60.88
28267;BME280;15525;45.568;5.448;2023-05-20T04:14:11;97805.34;;;16.42;60.31
28267;BME280;15525;45.568;5.448;2023-05-20T04:16:37;97799.81;;;16.47;60.42
28267;BME280;15525;45.568;5.448;2023-05-20T04:19:03;97818.63;;;16.61;60.34
28267;BME280;15525;45.568;5.448;2023-05-20T04:21:28;97830.13;;;16.83;60.41
28267;BME280;15525;45.568;5.448;2023-05-20T04:23:54;97777.22;;;16.43;60.04
28267;BME280;15525;45.568;5.448;2023-05-20T04:26:19;97747.56;;;16.21;60.33
28267;BME280;15525;45.568;5.448;2023-05-20T04:28:45;97792.69;;;16.60;60.40
28267;BME280;15525;45.568;5.448;2023-05-20T04:31:13;97768.34;;;16.51;60.13
28267;BME280;15525;45.568;5.448;2023-05-20T04:33:39;97800.84;;;16.77;59.89
28267;BME280;15525;45.568;5.448;2023-05-20T04:36:09;97810.25;;;16.79;60.16
28267;BME280;15525;45.568;5.448;2023-05-20T04:38:36;97803.88;;;16.75;59.99
28267;BME280;15525;45.568;5.448;2023-05-20T04:41:02;97808.66;;;16.78;60.47
28267;BME280;15525;45.568;5.448;2023-05-20T04:43:28;97794.34;;;16.78;59.91
28267;BME280;15525;45.568;5.448;2023-05-20T04:45:55;97793.09;;;16.84;59.75
28267;BME280;15525;45.568;5.448;2023-05-20T04:48:21;97748.72;;;16.37;59.98
28267;BME280;15525;45.568;5.448;2023-05-20T04:50:47;97712.34;;;15.96;60.45
28267;BME280;15525;45.568;5.448;2023-05-20T04:53:14;97731.59;;;15.94;60.38
28267;BME280;15525;45.568;5.448;2023-05-20T04:55:40;97716.47;;;15.93;60.75
28267;BME280;15525;45.568;5.448;2023-05-20T04:58:05;97732.09;;;16.05;60.86
28267;BME280;15525;45.568;5.448;2023-05-20T05:00:32;97726.66;;;15.96;61.06
28267;BME280;15525;45.568;5.448;2023-05-20T05:02:58;97736.25;;;16.11;60.69
28267;BME280;15525;45.568;5.448;2023-05-20T05:05:25;97759.69;;;16.32;60.35
28267;BME280;15525;45.568;5.448;2023-05-20T05:07:51;97773.44;;;16.44;61.05
28267;BME280;15525;45.568;5.448;2023-05-20T05:10:16;97785.53;;;16.55;60.66
28267;BME280;15525;45.568;5.448;2023-05-20T05:12:41;97764.81;;;16.42;60.50
28267;BME280;15525;45.568;5.448;2023-05-20T05:15:07;97725.34;;;16.24;60.52
28267;BME280;15525;45.568;5.448;2023-05-20T05:17:33;97751.81;;;16.44;60.55
28267;BME280;15525;45.568;5.448;2023-05-20T05:19:58;97796.25;;;16.86;60.33
28267;BME280;15525;45.568;5.448;2023-05-20T05:22:24;97726.00;;;16.30;60.33
28267;BME280;15525;45.568;5.448;2023-05-20T05:24:49;97749.28;;;16.48;60.54
28267;BME280;15525;45.568;5.448;2023-05-20T05:27:14;97788.44;;;16.67;60.47
28267;BME280;15525;45.568;5.448;2023-05-20T05:29:40;97776.66;;;16.63;61.00
28267;BME280;15525;45.568;5.448;2023-05-20T05:32:06;97720.59;;;16.38;61.06
28267;BME280;15525;45.568;5.448;2023-05-20T05:34:31;97719.81;;;16.38;60.80
28267;BME280;15525;45.568;5.448;2023-05-20T05:36:56;97751.06;;;16.61;60.70
28267;BME280;15525;45.568;5.448;2023-05-20T05:39:22;97773.81;;;16.68;60.78
28267;BME280;15525;45.568;5.448;2023-05-20T05:41:47;97761.06;;;16.60;61.04
28267;BME280;15525;45.568;5.448;2023-05-20T05:44:13;97765.06;;;16.71;60.95
28267;BME280;15525;45.568;5.448;2023-05-20T05:46:39;97756.78;;;16.68;60.89
28267;BME280;15525;45.568;5.448;2023-05-20T05:49:05;97781.16;;;16.76;61.47
28267;BME280;15525;45.568;5.448;2023-05-20T05:51:30;97765.09;;;16.80;60.96
28267;BME280;15525;45.568;5.448;2023-05-20T05:53:55;97776.72;;;17.06;60.78
28267;BME280;15525;45.568;5.448;2023-05-20T05:56:21;97750.47;;;16.98;60.68
28267;BME280;15525;45.568;5.448;2023-05-20T05:58:46;97750.19;;;17.25;60.11
28267;BME280;15525;45.568;5.448;2023-05-20T06:01:12;97727.25;;;17.39;59.65
28267;BME280;15525;45.568;5.448;2023-05-20T06:03:38;97779.63;;;17.60;59.69
28267;BME280;15525;45.568;5.448;2023-05-20T06:06:03;97736.50;;;17.30;59.86
28267;BME280;15525;45.568;5.448;2023-05-20T06:08:29;97715.63;;;16.79;60.68
28267;BME280;15525;45.568;5.448;2023-05-20T06:10:55;97753.66;;;16.91;60.69
28267;BME280;15525;45.568;5.448;2023-05-20T06:13:20;97748.25;;;17.17;60.34
28267;BME280;15525;45.568;5.448;2023-05-20T06:15:48;97792.31;;;17.17;60.96
28267;BME280;15525;45.568;5.448;2023-05-20T06:18:13;97783.00;;;17.40;60.08
28267;BME280;15525;45.568;5.448;2023-05-20T06:20:39;97743.19;;;17.41;59.89
28267;BME280;15525;45.568;5.448;2023-05-20T06:23:05;97753.53;;;17.47;59.75
28267;BME280;15525;45.568;5.448;2023-05-20T06:25:30;97739.19;;;17.38;59.92
28267;BME280;15525;45.568;5.448;2023-05-20T06:27:56;97746.03;;;17.27;60.14
28267;BME280;15525;45.568;5.448;2023-05-20T06:30:21;97755.09;;;17.48;60.01
28267;BME280;15525;45.568;5.448;2023-05-20T06:32:47;97752.19;;;17.87;59.32
28267;BME280;15525;45.568;5.448;2023-05-20T06:35:12;97729.47;;;17.63;59.37
28267;BME280;15525;45.568;5.448;2023-05-20T06:37:37;97715.44;;;17.69;59.19
28267;BME280;15525;45.568;5.448;2023-05-20T06:40:03;97734.34;;;17.86;58.53
28267;BME280;15525;45.568;5.448;2023-05-20T06:42:29;97740.19;;;18.05;58.28
28267;BME280;15525;45.568;5.448;2023-05-20T06:44:55;97739.06;;;18.06;58.56
28267;BME280;15525;45.568;5.448;2023-05-20T06:47:20;97743.84;;;18.47;57.71
28267;BME280;15525;45.568;5.448;2023-05-20T06:49:46;97746.78;;;18.62;57.80
28267;BME280;15525;45.568;5.448;2023-05-20T06:52:11;97729.22;;;19.09;56.39
28267;BME280;15525;45.568;5.448;2023-05-20T06:54:37;97781.94;;;19.49;56.78
28267;BME280;15525;45.568;5.448;2023-05-20T06:57:09;97784.19;;;19.27;56.89
28267;BME280;15525;45.568;5.448;2023-05-20T06:59:37;97761.81;;;18.80;57.51
28267;BME280;15525;45.568;5.448;2023-05-20T07:02:12;97758.78;;;18.82;57.98
28267;BME280;15525;45.568;5.448;2023-05-20T07:04:38;97748.59;;;18.99;57.34
28267;BME280;15525;45.568;5.448;2023-05-20T07:07:03;97759.66;;;19.23;56.91
28267;BME280;15525;45.568;5.448;2023-05-20T07:09:29;97755.16;;;18.98;57.39
28267;BME280;15525;45.568;5.448;2023-05-20T07:11:54;97743.25;;;18.91;57.27
28267;BME280;15525;45.568;5.448;2023-05-20T07:14:20;97771.09;;;19.29;56.77
28267;BME280;15525;45.568;5.448;2023-05-20T07:16:45;97746.78;;;18.91;57.01
28267;BME280;15525;45.568;5.448;2023-05-20T07:19:11;97739.53;;;18.46;57.80
28267;BME280;15525;45.568;5.448;2023-05-20T07:21:36;97749.78;;;18.69;57.28
28267;BME280;15525;45.568;5.448;2023-05-20T07:24:02;97734.31;;;18.41;57.55
28267;BME280;15525;45.568;5.448;2023-05-20T07:26:27;97755.16;;;18.49;57.61
28267;BME280;15525;45.568;5.448;2023-05-20T07:28:54;97746.13;;;18.65;57.34
28267;BME280;15525;45.568;5.448;2023-05-20T07:31:20;97751.44;;;18.62;57.43
28267;BME280;15525;45.568;5.448;2023-05-20T07:33:45;97741.13;;;18.76;56.95
28267;BME280;15525;45.568;5.448;2023-05-20T07:36:11;97754.00;;;19.49;55.90
28267;BME280;15525;45.568;5.448;2023-05-20T07:38:36;97744.78;;;19.41;56.11
28267;BME280;15525;45.568;5.448;2023-05-20T07:41:02;97741.81;;;19.14;56.58
28267;BME280;15525;45.568;5.448;2023-05-20T07:43:27;97738.97;;;19.51;56.16
28267;BME280;15525;45.568;5.448;2023-05-20T07:45:53;97718.88;;;19.64;55.54
28267;BME280;15525;45.568;5.448;2023-05-20T07:48:18;97737.94;;;20.00;55.08
28267;BME280;15525;45.568;5.448;2023-05-20T07:50:44;97741.66;;;20.28;54.99
28267;BME280;15525;45.568;5.448;2023-05-20T07:53:09;97722.38;;;20.21;54.78
28267;BME280;15525;45.568;5.448;2023-05-20T07:55:35;97715.78;;;20.82;53.54
28267;BME280;15525;45.568;5.448;2023-05-20T07:58:03;97732.69;;;21.28;53.08
28267;BME280;15525;45.568;5.448;2023-05-20T08:00:29;97707.75;;;21.26;52.71
28267;BME280;15525;45.568;5.448;2023-05-20T08:02:55;97739.13;;;21.35;52.27
28267;BME280;15525;45.568;5.448;2023-05-20T08:05:20;97733.88;;;21.15;52.79
28267;BME280;15525;45.568;5.448;2023-05-20T08:07:47;97719.44;;;20.74;53.10
28267;BME280;15525;45.568;5.448;2023-05-20T08:10:12;97702.22;;;20.70;53.20
28267;BME280;15525;45.568;5.448;2023-05-20T08:12:38;97720.44;;;20.82;53.52
28267;BME280;15525;45.568;5.448;2023-05-20T08:15:04;97714.56;;;20.20;53.97
28267;BME280;15525;45.568;5.448;2023-05-20T08:17:31;97735.66;;;20.23;54.52
28267;BME280;15525;45.568;5.448;2023-05-20T08:19:57;97705.06;;;20.50;54.09
28267;BME280;15525;45.568;5.448;2023-05-20T08:22:22;97710.06;;;20.36;53.70
28267;BME280;15525;45.568;5.448;2023-05-20T08:24:47;97713.53;;;20.72;53.16
28267;BME280;15525;45.568;5.448;2023-05-20T08:27:13;97712.38;;;20.98;52.22
28267;BME280;15525;45.568;5.448;2023-05-20T08:29:38;97708.81;;;20.33;53.70
28267;BME280;15525;45.568;5.448;2023-05-20T08:32:04;97712.88;;;20.15;54.27
28267;BME280;15525;45.568;5.448;2023-05-20T08:34:29;97718.31;;;20.51;53.37
28267;BME280;15525;45.568;5.448;2023-05-20T08:36:55;97713.53;;;20.84;52.83
28267;BME280;15525;45.568;5.448;2023-05-20T08:39:22;97699.91;;;21.52;51.66
28267;BME280;15525;45.568;5.448;2023-05-20T08:41:47;97700.19;;;22.52;49.47
28267;BME280;15525;45.568;5.448;2023-05-20T08:44:13;97700.56;;;22.50;49.23
28267;BME280;15525;45.568;5.448;2023-05-20T08:46:39;97711.66;;;22.92;48.98
28267;BME280;15525;45.568;5.448;2023-05-20T08:49:06;97706.94;;;23.08;48.17
28267;BME280;15525;45.568;5.448;2023-05-20T08:51:32;97711.56;;;23.42;47.97
28267;BME280;15525;45.568;5.448;2023-05-20T08:54:01;97703.09;;;22.74;47.75
28267;BME280;15525;45.568;5.448;2023-05-20T08:56:27;97708.84;;;22.88;49.26
28267;BME280;15525;45.568;5.448;2023-05-20T08:58:53;97698.75;;;23.08;48.29
28267;BME280;15525;45.568;5.448;2023-05-20T09:01:23;97716.13;;;23.00;48.49
28267;BME280;15525;45.568;5.448;2023-05-20T09:03:48;97713.31;;;22.31;49.04
28267;BME280;15525;45.568;5.448;2023-05-20T09:06:15;97700.53;;;21.73;50.09
28267;BME280;15525;45.568;5.448;2023-05-20T09:08:41;97698.88;;;21.99;49.76
28267;BME280;15525;45.568;5.448;2023-05-20T09:11:08;97696.16;;;21.99;49.18
28267;BME280;15525;45.568;5.448;2023-05-20T09:13:34;97710.13;;;21.98;49.69
28267;BME280;15525;45.568;5.448;2023-05-20T09:16:00;97699.75;;;22.03;49.39
28267;BME280;15525;45.568;5.448;2023-05-20T09:18:28;97704.34;;;22.15;49.36
28267;BME280;15525;45.568;5.448;2023-05-20T09:20:54;97690.16;;;22.56;48.53
28267;BME280;15525;45.568;5.448;2023-05-20T09:23:19;97719.00;;;22.72;48.51
28267;BME280;15525;45.568;5.448;2023-05-20T09:25:50;97716.19;;;22.69;48.26
28267;BME280;15525;45.568;5.448;2023-05-20T09:28:18;97731.16;;;21.97;49.09
28267;BME280;15525;45.568;5.448;2023-05-20T09:30:44;97715.06;;;21.10;51.13
28267;BME280;15525;45.568;5.448;2023-05-20T09:33:12;97708.47;;;21.50;50.32
28267;BME280;15525;45.568;5.448;2023-05-20T09:35:38;97707.41;;;21.55;49.76
28267;BME280;15525;45.568;5.448;2023-05-20T09:38:04;97721.50;;;22.31;48.70
28267;BME280;15525;45.568;5.448;2023-05-20T09:40:30;97703.09;;;22.74;47.69
28267;BME280;15525;45.568;5.448;2023-05-20T09:43:00;97716.25;;;23.07;47.64
28267;BME280;15525;45.568;5.448;2023-05-20T09:45:26;97701.84;;;22.72;47.58
28267;BME280;15525;45.568;5.448;2023-05-20T09:47:53;97717.94;;;22.77;47.75
28267;BME280;15525;45.568;5.448;2023-05-20T09:50:20;97700.81;;;22.45;47.49
28267;BME280;15525;45.568;5.448;2023-05-20T09:52:47;97713.75;;;22.33;48.55
28267;BME280;15525;45.568;5.448;2023-05-20T09:55:13;97715.94;;;21.81;48.97
28267;BME280;15525;45.568;5.448;2023-05-20T09:57:39;97714.69;;;21.78;49.50
28267;BME280;15525;45.568;5.448;2023-05-20T10:00:05;97711.53;;;22.69;48.19
28267;BME280;15525;45.568;5.448;2023-05-20T10:02:33;97708.22;;;21.98;48.53
28267;BME280;15525;45.568;5.448;2023-05-20T10:05:03;97699.16;;;22.41;48.51
28267;BME280;15525;45.568;5.448;2023-05-20T10:10:36;97710.66;;;23.00;46.68
28267;BME280;15525;45.568;5.448;2023-05-20T10:21:27;97706.28;;;23.90;44.51
28267;BME280;15525;45.568;5.448;2023-05-20T10:23:52;97694.44;;;24.05;44.85
28267;BME280;15525;45.568;5.448;2023-05-20T10:26:18;97697.13;;;23.60;45.52
28267;BME280;15525;45.568;5.448;2023-05-20T10:28:44;97697.56;;;23.43;45.86
28267;BME280;15525;45.568;5.448;2023-05-20T10:31:20;97692.31;;;23.54;45.23
28267;BME280;15525;45.568;5.448;2023-05-20T10:33:46;97706.38;;;22.64;47.05
28267;BME280;15525;45.568;5.448;2023-05-20T10:36:28;97702.75;;;22.95;47.59
28267;BME280;15525;45.568;5.448;2023-05-20T10:38:58;97693.81;;;22.79;46.92
28267;BME280;15525;45.568;5.448;2023-05-20T10:41:25;97696.59;;;23.17;46.21
28267;BME280;15525;45.568;5.448;2023-05-20T10:44:01;97694.81;;;23.05;47.02
28267;BME280;15525;45.568;5.448;2023-05-20T10:46:27;97679.13;;;23.59;45.48
28267;BME280;15525;45.568;5.448;2023-05-20T10:48:53;97691.41;;;23.69;45.14
28267;BME280;15525;45.568;5.448;2023-05-20T10:51:19;97698.34;;;24.53;44.00
28267;BME280;15525;45.568;5.448;2023-05-20T10:53:45;97686.53;;;24.71;43.42
28267;BME280;15525;45.568;5.448;2023-05-20T10:56:18;97688.59;;;24.55;42.81
28267;BME280;15525;45.568;5.448;2023-05-20T10:58:44;97681.06;;;24.49;43.84
28267;BME280;15525;45.568;5.448;2023-05-20T11:01:10;97686.94;;;24.73;43.23
28267;BME280;15525;45.568;5.448;2023-05-20T11:03:37;97672.84;;;24.49;43.90
28267;BME280;15525;45.568;5.448;2023-05-20T11:06:17;97678.03;;;25.06;42.65
28267;BME280;15525;45.568;5.448;2023-05-20T11:08:43;97670.44;;;24.66;43.17
28267;BME280;15525;45.568;5.448;2023-05-20T11:11:10;97683.47;;;25.32;42.47
28267;BME280;15525;45.568;5.448;2023-05-20T11:13:36;97673.59;;;25.93;41.42
28267;BME280;15525;45.568;5.448;2023-05-20T11:16:01;97660.44;;;25.73;41.13
28267;BME280;15525;45.568;5.448;2023-05-20T11:18:27;97674.84;;;24.74;42.61
28267;BME280;15525;45.568;5.448;2023-05-20T11:21:00;97673.94;;;24.18;43.25
28267;BME280;15525;45.568;5.448;2023-05-20T11:23:27;97686.06;;;23.95;43.29
28267;BME280;15525;45.568;5.448;2023-05-20T11:25:54;97656.47;;;23.59;43.44
28267;BME280;15525;45.568;5.448;2023-05-20T11:28:20;97655.69;;;24.26;42.39
28267;BME280;15525;45.568;5.448;2023-05-20T11:30:47;97669.34;;;24.74;42.21
28267;BME280;15525;45.568;5.448;2023-05-20T11:33:14;97646.06;;;25.50;41.27
28267;BME280;15525;45.568;5.448;2023-05-20T11:35:46;97643.81;;;25.59;41.84
28267;BME280;15525;45.568;5.448;2023-05-20T11:38:11;97638.25;;;27.00;39.15
28267;BME280;15525;45.568;5.448;2023-05-20T11:40:42;97652.91;;;26.06;39.78
28267;BME280;15525;45.568;5.448;2023-05-20T11:43:10;97642.44;;;25.75;40.39
28267;BME280;15525;45.568;5.448;2023-05-20T11:45:42;97640.75;;;25.64;41.20
28267;BME280;15525;45.568;5.448;2023-05-20T11:48:09;97663.16;;;26.13;40.25
28267;BME280;15525;45.568;5.448;2023-05-20T11:50:41;97652.97;;;25.73;41.08
28267;BME280;15525;45.568;5.448;2023-05-20T11:53:08;97653.00;;;27.35;39.18
28267;BME280;15525;45.568;5.448;2023-05-20T11:55:54;97653.06;;;27.63;37.76
28267;BME280;15525;45.568;5.448;2023-05-20T11:58:27;97644.78;;;27.56;37.03
28267;BME280;15525;45.568;5.448;2023-05-20T12:00:53;97644.28;;;27.23;38.74
28267;BME280;15525;45.568;5.448;2023-05-20T12:03:18;97647.22;;;26.25;39.73
28267;BME280;15525;45.568;5.448;2023-05-20T12:05:45;97633.63;;;25.96;40.81
28267;BME280;15525;45.568;5.448;2023-05-20T12:08:12;97643.06;;;26.49;39.85
28267;BME280;15525;45.568;5.448;2023-05-20T12:10:37;97607.66;;;25.86;40.71
28267;BME280;15525;45.568;5.448;2023-05-20T12:13:03;97639.13;;;25.59;41.03
28267;BME280;15525;45.568;5.448;2023-05-20T12:15:29;97638.97;;;25.12;41.43
28267;BME280;15525;45.568;5.448;2023-05-20T12:17:54;97637.78;;;25.13;41.44
28267;BME280;15525;45.568;5.448;2023-05-20T12:20:22;97638.28;;;25.55;40.96
28267;BME280;15525;45.568;5.448;2023-05-20T12:22:48;97639.53;;;25.98;40.59
28267;BME280;15525;45.568;5.448;2023-05-20T12:25:15;97636.00;;;26.51;39.75
28267;BME280;15525;45.568;5.448;2023-05-20T12:27:42;97640.13;;;25.81;40.22
28267;BME280;15525;45.568;5.448;2023-05-20T12:30:08;97632.63;;;25.38;40.23
28267;BME280;15525;45.568;5.448;2023-05-20T12:32:36;97631.22;;;26.38;39.59
28267;BME280;15525;45.568;5.448;2023-05-20T12:35:01;97608.28;;;26.67;38.75
28267;BME280;15525;45.568;5.448;2023-05-20T12:37:27;97634.47;;;25.63;40.57
28267;BME280;15525;45.568;5.448;2023-05-20T12:39:52;97616.09;;;26.61;39.48
28267;BME280;15525;45.568;5.448;2023-05-20T12:42:18;97613.31;;;27.33;38.75
28267;BME280;15525;45.568;5.448;2023-05-20T12:44:43;97610.25;;;25.69;41.08
28267;BME280;15525;45.568;5.448;2023-05-20T12:47:08;97605.91;;;24.65;42.60
28267;BME280;15525;45.568;5.448;2023-05-20T12:49:34;97621.53;;;24.94;42.35
28267;BME280;15525;45.568;5.448;2023-05-20T12:51:59;97612.25;;;25.35;41.48
28267;BME280;15525;45.568;5.448;2023-05-20T12:54:25;97608.97;;;25.59;41.02
28267;BME280;15525;45.568;5.448;2023-05-20T12:56:53;97622.34;;;26.04;40.35
28267;BME280;15525;45.568;5.448;2023-05-20T12:59:19;97622.41;;;25.02;41.57
28267;BME280;15525;45.568;5.448;2023-05-20T13:01:45;97619.81;;;24.57;42.53
28267;BME280;15525;45.568;5.448;2023-05-20T13:04:10;97623.81;;;24.63;42.51
28267;BME280;15525;45.568;5.448;2023-05-20T13:06:36;97614.19;;;25.35;41.36